sensor_id;sensor_type;location;lat;lon;timestamp;pressure;altitude;pressure_sealevel;temperature;humidity
23241;BME280;11789;53.482;9.862;2022-12-18T00:01:31;103032.38;;;-6.41;91.19
23241;BME280;11789;53.482;9.862;2022-12-18T00:03:57;103024.34;;;-6.45;90.88
23241;BME280;11789;53.482;9.862;2022-12-18T00:06:24;103026.66;;;-6.56;91.29
23241;BME280;11789;53.482;9.862;2022-12-18T00:08:50;103029.19;;;-6.56;91.98
23241;BME280;11789;53.482;9.862;2022-12-18T00:11:21;103036.87;;;-6.54;92.65
23241;BME280;11789;53.482;9.862;2022-12-18T00:13:48;103041.97;;;-6.45;92.77
23241;BME280;11789;53.482;9.862;2022-12-18T00:16:18;103035.56;;;-6.50;92.85
23241;BME280;11789;53.482;9.862;2022-12-18T00:18:46;103036.72;;;-6.56;92.67
23241;BME280;11789;53.482;9.862;2022-12-18T00:21:12;103037.00;;;-6.61;92.93
23241;BME280;11789;53.482;9.862;2022-12-18T00:23:39;103039.03;;;-6.66;93.34
23241;BME280;11789;53.482;9.862;2022-12-18T00:26:09;103039.50;;;-6.61;94.12
23241;BME280;11789;53.482;9.862;2022-12-18T00:28:35;103045.91;;;-6.56;94.34
23241;BME280;11789;53.482;9.862;2022-12-18T00:31:05;103045.97;;;-6.47;93.18
23241;BME280;11789;53.482;9.862;2022-12-18T00:33:31;103056.50;;;-6.43;92.83
23241;BME280;11789;53.482;9.862;2022-12-18T00:36:03;103060.94;;;-6.40;92.67
23241;BME280;11789;53.482;9.862;2022-12-18T00:38:29;103066.31;;;-6.37;92.18
23241;BME280;11789;53.482;9.862;2022-12-18T00:40:55;103067.06;;;-6.38;91.87
23241;BME280;11789;53.482;9.862;2022-12-18T00:43:20;103063.16;;;-6.43;90.89
23241;BME280;11789;53.482;9.862;2022-12-18T00:45:46;103063.87;;;-6.44;90.35
23241;BME280;11789;53.482;9.862;2022-12-18T00:48:11;103055.44;;;-6.45;90.58
23241;BME280;11789;53.482;9.862;2022-12-18T00:50:37;103053.66;;;-6.46;89.95
23241;BME280;11789;53.482;9.862;2022-12-18T00:53:03;103045.78;;;-6.49;89.02
23241;BME280;11789;53.482;9.862;2022-12-18T00:55:29;103052.97;;;-6.61;88.86
23241;BME280;11789;53.482;9.862;2022-12-18T00:57:54;103050.25;;;-6.71;89.28
23241;BME280;11789;53.482;9.862;2022-12-18T01:00:20;103059.81;;;-6.75;89.89
23241;BME280;11789;53.482;9.862;2022-12-18T01:02:46;103062.53;;;-6.74;90.16
23241;BME280;11789;53.482;9.862;2022-12-18T01:05:12;103072.75;;;-6.88;90.60
23241;BME280;11789;53.482;9.862;2022-12-18T01:07:38;103069.50;;;-6.87;91.10
23241;BME280;11789;53.482;9.862;2022-12-18T01:10:05;103079.50;;;-6.96;91.41
23241;BME280;11789;53.482;9.862;2022-12-18T01:12:31;103083.56;;;-6.89;91.85
23241;BME280;11789;53.482;9.862;2022-12-18T01:14:57;103078.84;;;-7.02;91.45
23241;BME280;11789;53.482;9.862;2022-12-18T01:17:23;103067.75;;;-7.04;91.87
23241;BME280;11789;53.482;9.862;2022-12-18T01:19:48;103065.78;;;-7.07;92.18
23241;BME280;11789;53.482;9.862;2022-12-18T01:22:14;103063.19;;;-6.99;91.71
23241;BME280;11789;53.482;9.862;2022-12-18T01:24:39;103058.25;;;-7.07;91.70
23241;BME280;11789;53.482;9.862;2022-12-18T01:27:05;103054.84;;;-7.07;91.85
23241;BME280;11789;53.482;9.862;2022-12-18T01:29:30;103056.78;;;-7.05;91.98
23241;BME280;11789;53.482;9.862;2022-12-18T01:31:56;103059.12;;;-7.06;92.32
23241;BME280;11789;53.482;9.862;2022-12-18T01:34:22;103060.22;;;-7.04;92.67
23241;BME280;11789;53.482;9.862;2022-12-18T01:36:48;103060.22;;;-7.04;92.25
23241;BME280;11789;53.482;9.862;2022-12-18T01:39:14;103057.19;;;-6.93;92.41
23241;BME280;11789;53.482;9.862;2022-12-18T01:41:40;103057.41;;;-6.83;91.48
23241;BME280;11789;53.482;9.862;2022-12-18T01:47:20;103063.06;;;-6.76;90.91
23241;BME280;11789;53.482;9.862;2022-12-18T01:49:50;103071.06;;;-6.96;91.05
23241;BME280;11789;53.482;9.862;2022-12-18T01:52:17;103078.13;;;-7.01;92.08
23241;BME280;11789;53.482;9.862;2022-12-18T01:54:43;103085.41;;;-6.95;92.92
23241;BME280;11789;53.482;9.862;2022-12-18T01:57:10;103091.41;;;-7.02;93.34
23241;BME280;11789;53.482;9.862;2022-12-18T01:59:36;103086.53;;;-7.00;94.13
23241;BME280;11789;53.482;9.862;2022-12-18T02:02:02;103089.06;;;-7.00;94.53
23241;BME280;11789;53.482;9.862;2022-12-18T02:04:28;103085.81;;;-6.99;94.82
23241;BME280;11789;53.482;9.862;2022-12-18T02:07:10;103083.47;;;-6.98;94.82
23241;BME280;11789;53.482;9.862;2022-12-18T02:12:23;103079.84;;;-7.09;94.78
23241;BME280;11789;53.482;9.862;2022-12-18T02:15:10;103088.03;;;-7.02;94.70
23241;BME280;11789;53.482;9.862;2022-12-18T02:17:49;103084.03;;;-7.00;94.03
23241;BME280;11789;53.482;9.862;2022-12-18T02:20:23;103087.44;;;-7.00;93.12
23241;BME280;11789;53.482;9.862;2022-12-18T02:26:07;103095.47;;;-6.95;91.85
23241;BME280;11789;53.482;9.862;2022-12-18T02:28:49;103095.47;;;-6.95;91.29
23241;BME280;11789;53.482;9.862;2022-12-18T02:31:22;103103.34;;;-6.92;90.92
23241;BME280;11789;53.482;9.862;2022-12-18T02:33:51;103108.37;;;-6.92;90.58
23241;BME280;11789;53.482;9.862;2022-12-18T02:36:22;103100.87;;;-6.99;90.41
23241;BME280;11789;53.482;9.862;2022-12-18T02:38:50;103096.84;;;-7.06;89.47
23241;BME280;11789;53.482;9.862;2022-12-18T02:41:18;103099.22;;;-7.08;88.46
23241;BME280;11789;53.482;9.862;2022-12-18T02:43:56;103102.13;;;-7.12;87.30
23241;BME280;11789;53.482;9.862;2022-12-18T02:52:07;103100.09;;;-7.23;86.81
23241;BME280;11789;53.482;9.862;2022-12-18T02:57:49;103104.87;;;-7.33;86.88
23241;BME280;11789;53.482;9.862;2022-12-18T03:00:25;103113.59;;;-7.45;87.31
23241;BME280;11789;53.482;9.862;2022-12-18T03:05:27;103113.72;;;-7.75;88.48
23241;BME280;11789;53.482;9.862;2022-12-18T03:08:00;103113.91;;;-7.81;89.41
23241;BME280;11789;53.482;9.862;2022-12-18T03:10:30;103109.97;;;-7.79;89.83
23241;BME280;11789;53.482;9.862;2022-12-18T03:13:04;103113.22;;;-7.80;90.34
23241;BME280;11789;53.482;9.862;2022-12-18T03:15:42;103112.13;;;-7.82;90.96
23241;BME280;11789;53.482;9.862;2022-12-18T03:18:23;103107.56;;;-7.70;91.78
23241;BME280;11789;53.482;9.862;2022-12-18T03:20:52;103105.13;;;-7.62;90.62
23241;BME280;11789;53.482;9.862;2022-12-18T03:23:23;103112.22;;;-7.50;89.17
23241;BME280;11789;53.482;9.862;2022-12-18T03:25:53;103107.87;;;-7.44;88.84
23241;BME280;11789;53.482;9.862;2022-12-18T03:28:22;103108.31;;;-7.55;88.59
23241;BME280;11789;53.482;9.862;2022-12-18T03:30:53;103113.03;;;-7.59;88.92
23241;BME280;11789;53.482;9.862;2022-12-18T03:33:26;103111.91;;;-7.53;88.28
23241;BME280;11789;53.482;9.862;2022-12-18T03:35:53;103128.13;;;-7.43;87.98
23241;BME280;11789;53.482;9.862;2022-12-18T03:38:19;103122.31;;;-7.35;87.69
23241;BME280;11789;53.482;9.862;2022-12-18T03:40:59;103125.75;;;-7.41;87.40
23241;BME280;11789;53.482;9.862;2022-12-18T03:43:35;103125.81;;;-7.64;87.84
23241;BME280;11789;53.482;9.862;2022-12-18T03:46:17;103125.78;;;-7.80;89.01
23241;BME280;11789;53.482;9.862;2022-12-18T03:48:53;103119.16;;;-7.87;89.94
23241;BME280;11789;53.482;9.862;2022-12-18T03:51:34;103125.88;;;-7.94;90.92
23241;BME280;11789;53.482;9.862;2022-12-18T03:54:05;103124.78;;;-7.96;91.74
23241;BME280;11789;53.482;9.862;2022-12-18T03:56:37;103115.25;;;-7.92;92.57
23241;BME280;11789;53.482;9.862;2022-12-18T03:59:04;103121.66;;;-7.87;92.79
23241;BME280;11789;53.482;9.862;2022-12-18T04:01:37;103122.91;;;-7.83;92.61
23241;BME280;11789;53.482;9.862;2022-12-18T04:04:05;103120.78;;;-7.87;92.51
23241;BME280;11789;53.482;9.862;2022-12-18T04:06:32;103118.84;;;-7.90;92.56
23241;BME280;11789;53.482;9.862;2022-12-18T04:08:58;103123.88;;;-7.90;92.20
23241;BME280;11789;53.482;9.862;2022-12-18T04:11:24;103119.34;;;-7.85;91.88
23241;BME280;11789;53.482;9.862;2022-12-18T04:13:50;103119.34;;;-7.85;91.51
23241;BME280;11789;53.482;9.862;2022-12-18T04:16:15;103121.13;;;-7.84;91.36
23241;BME280;11789;53.482;9.862;2022-12-18T04:18:40;103116.84;;;-7.85;91.42
23241;BME280;11789;53.482;9.862;2022-12-18T04:21:06;103116.94;;;-7.99;91.65
23241;BME280;11789;53.482;9.862;2022-12-18T04:23:31;103104.44;;;-8.06;92.08
23241;BME280;11789;53.482;9.862;2022-12-18T04:25:57;103114.44;;;-7.99;92.13
23241;BME280;11789;53.482;9.862;2022-12-18T04:28:22;103113.31;;;-7.94;91.54
23241;BME280;11789;53.482;9.862;2022-12-18T04:30:48;103118.28;;;-7.87;90.10
23241;BME280;11789;53.482;9.862;2022-12-18T04:33:13;103113.91;;;-7.81;89.83
23241;BME280;11789;53.482;9.862;2022-12-18T04:35:40;103111.91;;;-7.76;89.29
23241;BME280;11789;53.482;9.862;2022-12-18T04:38:06;103105.22;;;-7.69;89.44
23241;BME280;11789;53.482;9.862;2022-12-18T04:40:34;103104.81;;;-7.65;89.21
23241;BME280;11789;53.482;9.862;2022-12-18T04:42:59;103104.31;;;-7.69;89.34
23241;BME280;11789;53.482;9.862;2022-12-18T04:45:25;103097.53;;;-7.70;89.97
23241;BME280;11789;53.482;9.862;2022-12-18T04:47:50;103098.41;;;-7.70;90.02
23241;BME280;11789;53.482;9.862;2022-12-18T04:50:15;103104.13;;;-7.71;90.28
23241;BME280;11789;53.482;9.862;2022-12-18T04:52:41;103105.94;;;-7.70;89.84
23241;BME280;11789;53.482;9.862;2022-12-18T04:55:07;103104.78;;;-7.80;90.10
23241;BME280;11789;53.482;9.862;2022-12-18T04:57:32;103097.47;;;-7.86;89.99
23241;BME280;11789;53.482;9.862;2022-12-18T04:59:57;103095.28;;;-7.83;89.82
23241;BME280;11789;53.482;9.862;2022-12-18T05:02:23;103106.97;;;-7.84;89.56
23241;BME280;11789;53.482;9.862;2022-12-18T05:04:48;103112.09;;;-7.75;88.72
23241;BME280;11789;53.482;9.862;2022-12-18T05:07:14;103112.09;;;-7.75;88.21
23241;BME280;11789;53.482;9.862;2022-12-18T05:09:40;103109.31;;;-7.85;88.25
23241;BME280;11789;53.482;9.862;2022-12-18T05:12:06;103121.50;;;-7.88;88.29
23241;BME280;11789;53.482;9.862;2022-12-18T05:14:31;103125.94;;;-7.78;88.23
23241;BME280;11789;53.482;9.862;2022-12-18T05:16:56;103134.13;;;-7.72;87.88
23241;BME280;11789;53.482;9.862;2022-12-18T05:19:22;103146.62;;;-7.65;88.05
23241;BME280;11789;53.482;9.862;2022-12-18T05:21:47;103137.63;;;-7.63;88.26
23241;BME280;11789;53.482;9.862;2022-12-18T05:24:13;103135.78;;;-7.57;88.04
23241;BME280;11789;53.482;9.862;2022-12-18T05:26:38;103133.66;;;-7.61;87.22
23241;BME280;11789;53.482;9.862;2022-12-18T05:29:04;103140.59;;;-7.74;86.80
23241;BME280;11789;53.482;9.862;2022-12-18T05:31:29;103141.72;;;-7.79;87.02
23241;BME280;11789;53.482;9.862;2022-12-18T05:33:55;103143.22;;;-7.89;86.98
23241;BME280;11789;53.482;9.862;2022-12-18T05:36:20;103144.34;;;-7.94;86.90
23241;BME280;11789;53.482;9.862;2022-12-18T05:38:46;103149.00;;;-7.97;86.85
23241;BME280;11789;53.482;9.862;2022-12-18T05:41:11;103159.91;;;-7.89;86.54
23241;BME280;11789;53.482;9.862;2022-12-18T05:43:39;103158.13;;;-7.90;86.44
23241;BME280;11789;53.482;9.862;2022-12-18T05:46:06;103161.03;;;-8.01;86.18
23241;BME280;11789;53.482;9.862;2022-12-18T05:48:32;103157.94;;;-8.15;86.90
23241;BME280;11789;53.482;9.862;2022-12-18T05:51:04;103156.31;;;-8.21;87.84
23241;BME280;11789;53.482;9.862;2022-12-18T05:53:30;103163.84;;;-8.14;88.42
23241;BME280;11789;53.482;9.862;2022-12-18T05:56:00;103172.03;;;-8.08;88.13
23241;BME280;11789;53.482;9.862;2022-12-18T05:58:25;103175.06;;;-8.03;87.85
23241;BME280;11789;53.482;9.862;2022-12-18T06:00:51;103170.72;;;-7.97;87.77
23241;BME280;11789;53.482;9.862;2022-12-18T06:03:16;103172.47;;;-7.96;86.88
23241;BME280;11789;53.482;9.862;2022-12-18T06:05:43;103160.22;;;-8.09;87.01
23241;BME280;11789;53.482;9.862;2022-12-18T06:08:10;103165.81;;;-8.19;87.54
23241;BME280;11789;53.482;9.862;2022-12-18T06:10:36;103162.28;;;-8.21;88.43
23241;BME280;11789;53.482;9.862;2022-12-18T06:13:02;103170.69;;;-8.20;88.58
23241;BME280;11789;53.482;9.862;2022-12-18T06:15:27;103176.53;;;-8.13;88.04
23241;BME280;11789;53.482;9.862;2022-12-18T06:17:53;103171.16;;;-8.08;87.37
23241;BME280;11789;53.482;9.862;2022-12-18T06:20:18;103172.03;;;-8.08;86.98
23241;BME280;11789;53.482;9.862;2022-12-18T06:22:44;103183.75;;;-8.16;86.80
23241;BME280;11789;53.482;9.862;2022-12-18T06:25:09;103174.69;;;-8.29;87.06
23241;BME280;11789;53.482;9.862;2022-12-18T06:27:35;103177.03;;;-8.31;87.67
23241;BME280;11789;53.482;9.862;2022-12-18T06:30:01;103182.19;;;-8.29;88.19
23241;BME280;11789;53.482;9.862;2022-12-18T06:32:27;103180.94;;;-8.26;88.00
23241;BME280;11789;53.482;9.862;2022-12-18T06:34:52;103185.03;;;-8.26;87.93
23241;BME280;11789;53.482;9.862;2022-12-18T06:37:19;103186.94;;;-8.17;87.52
23241;BME280;11789;53.482;9.862;2022-12-18T06:39:44;103190.72;;;-8.13;87.31
23241;BME280;11789;53.482;9.862;2022-12-18T06:42:10;103179.94;;;-8.12;87.15
23241;BME280;11789;53.482;9.862;2022-12-18T06:44:35;103186.63;;;-8.20;87.23
23241;BME280;11789;53.482;9.862;2022-12-18T06:47:01;103186.28;;;-8.23;87.55
23241;BME280;11789;53.482;9.862;2022-12-18T06:49:26;103194.69;;;-8.22;87.38
23241;BME280;11789;53.482;9.862;2022-12-18T06:51:51;103186.63;;;-8.20;87.49
23241;BME280;11789;53.482;9.862;2022-12-18T06:54:17;103188.94;;;-8.21;87.29
23241;BME280;11789;53.482;9.862;2022-12-18T06:56:45;103182.34;;;-8.21;87.41
23241;BME280;11789;53.482;9.862;2022-12-18T06:59:10;103173.72;;;-8.16;87.48
23241;BME280;11789;53.482;9.862;2022-12-18T07:01:36;103181.63;;;-8.20;87.72
23241;BME280;11789;53.482;9.862;2022-12-18T07:04:01;103181.03;;;-8.17;88.14
23241;BME280;11789;53.482;9.862;2022-12-18T07:06:27;103184.62;;;-8.15;88.40
23241;BME280;11789;53.482;9.862;2022-12-18T07:08:53;103186.94;;;-8.10;88.75
23241;BME280;11789;53.482;9.862;2022-12-18T07:11:19;103190.84;;;-8.04;89.03
23241;BME280;11789;53.482;9.862;2022-12-18T07:13:45;103176.41;;;-7.91;89.56
23241;BME280;11789;53.482;9.862;2022-12-18T07:16:16;103180.28;;;-7.79;90.52
23241;BME280;11789;53.482;9.862;2022-12-18T07:18:42;103191.16;;;-7.71;90.59
23241;BME280;11789;53.482;9.862;2022-12-18T07:21:11;103194.28;;;-7.58;91.35
23241;BME280;11789;53.482;9.862;2022-12-18T07:23:37;103194.94;;;-7.52;91.85
23241;BME280;11789;53.482;9.862;2022-12-18T07:26:04;103194.59;;;-7.32;92.68
23241;BME280;11789;53.482;9.862;2022-12-18T07:28:31;103196.84;;;-7.19;93.29
23241;BME280;11789;53.482;9.862;2022-12-18T07:30:57;103199.03;;;-7.07;93.78
23241;BME280;11789;53.482;9.862;2022-12-18T07:33:22;103199.44;;;-6.95;94.49
23241;BME280;11789;53.482;9.862;2022-12-18T07:35:47;103199.69;;;-6.85;94.86
23241;BME280;11789;53.482;9.862;2022-12-18T07:38:13;103199.72;;;-6.69;94.97
23241;BME280;11789;53.482;9.862;2022-12-18T07:40:38;103195.63;;;-6.60;94.89
23241;BME280;11789;53.482;9.862;2022-12-18T07:43:04;103205.63;;;-6.53;94.68
23241;BME280;11789;53.482;9.862;2022-12-18T07:45:29;103201.50;;;-6.52;94.62
23241;BME280;11789;53.482;9.862;2022-12-18T07:47:54;103204.78;;;-6.44;94.64
23241;BME280;11789;53.482;9.862;2022-12-18T07:50:20;103204.97;;;-6.43;94.42
23241;BME280;11789;53.482;9.862;2022-12-18T07:52:45;103208.28;;;-6.35;94.36
23241;BME280;11789;53.482;9.862;2022-12-18T07:55:12;103207.72;;;-6.33;94.21
23241;BME280;11789;53.482;9.862;2022-12-18T07:57:37;103211.19;;;-6.23;93.91
23241;BME280;11789;53.482;9.862;2022-12-18T08:00:03;103209.87;;;-6.20;93.55
23241;BME280;11789;53.482;9.862;2022-12-18T08:02:31;103207.28;;;-6.13;93.27
23241;BME280;11789;53.482;9.862;2022-12-18T08:04:56;103198.25;;;-6.11;93.08
23241;BME280;11789;53.482;9.862;2022-12-18T08:07:22;103203.09;;;-5.96;93.16
23241;BME280;11789;53.482;9.862;2022-12-18T08:09:47;103197.44;;;-5.36;91.85
23241;BME280;11789;53.482;9.862;2022-12-18T08:12:12;103205.16;;;-4.84;89.94
23241;BME280;11789;53.482;9.862;2022-12-18T08:14:38;103186.75;;;-4.31;86.20
23241;BME280;11789;53.482;9.862;2022-12-18T08:17:03;103190.66;;;-4.35;84.62
23241;BME280;11789;53.482;9.862;2022-12-18T08:19:29;103197.00;;;-4.73;84.77
23241;BME280;11789;53.482;9.862;2022-12-18T08:21:54;103197.97;;;-4.97;85.62
23241;BME280;11789;53.482;9.862;2022-12-18T08:24:20;103191.78;;;-4.83;86.30
23241;BME280;11789;53.482;9.862;2022-12-18T08:26:45;103170.59;;;-2.42;81.37
23241;BME280;11789;53.482;9.862;2022-12-18T08:29:10;103165.91;;;-0.16;71.34
23241;BME280;11789;53.482;9.862;2022-12-18T08:31:36;103172.78;;;0.61;67.91
23241;BME280;11789;53.482;9.862;2022-12-18T08:34:01;103166.19;;;1.53;63.49
23241;BME280;11789;53.482;9.862;2022-12-18T08:36:27;103159.88;;;2.57;59.83
23241;BME280;11789;53.482;9.862;2022-12-18T08:38:52;103154.03;;;3.87;54.94
23241;BME280;11789;53.482;9.862;2022-12-18T08:41:19;103154.44;;;3.41;54.66
23241;BME280;11789;53.482;9.862;2022-12-18T08:43:45;103165.63;;;1.93;54.67
23241;BME280;11789;53.482;9.862;2022-12-18T08:46:37;103165.00;;;1.15;57.84
23241;BME280;11789;53.482;9.862;2022-12-18T08:49:03;103161.28;;;0.88;57.58
23241;BME280;11789;53.482;9.862;2022-12-18T08:51:29;103174.72;;;-0.86;61.77
23241;BME280;11789;53.482;9.862;2022-12-18T08:53:54;103180.09;;;-1.92;65.44
23241;BME280;11789;53.482;9.862;2022-12-18T08:56:20;103180.66;;;-2.52;68.78
23241;BME280;11789;53.482;9.862;2022-12-18T08:58:45;103189.03;;;-2.24;69.96
23241;BME280;11789;53.482;9.862;2022-12-18T09:01:11;103178.78;;;0.61;63.53
23241;BME280;11789;53.482;9.862;2022-12-18T09:03:37;103162.28;;;3.83;52.72
23241;BME280;11789;53.482;9.862;2022-12-18T09:06:03;103165.91;;;4.69;49.01
23241;BME280;11789;53.482;9.862;2022-12-18T09:08:29;103161.00;;;6.55;43.63
23241;BME280;11789;53.482;9.862;2022-12-18T09:10:55;103165.31;;;6.72;43.22
23241;BME280;11789;53.482;9.862;2022-12-18T09:13:21;103171.87;;;6.18;42.67
23241;BME280;11789;53.482;9.862;2022-12-18T09:15:49;103152.22;;;8.83;38.88
23241;BME280;11789;53.482;9.862;2022-12-18T09:18:16;103149.09;;;9.53;35.34
23241;BME280;11789;53.482;9.862;2022-12-18T09:20:42;103145.50;;;8.87;35.59
23241;BME280;11789;53.482;9.862;2022-12-18T09:23:08;103141.50;;;8.74;36.04
23241;BME280;11789;53.482;9.862;2022-12-18T09:25:35;103153.62;;;6.61;38.84
23241;BME280;11789;53.482;9.862;2022-12-18T09:28:19;103163.75;;;3.93;43.94
23241;BME280;11789;53.482;9.862;2022-12-18T09:30:47;103166.22;;;3.52;46.51
23241;BME280;11789;53.482;9.862;2022-12-18T09:33:13;103170.00;;;2.55;48.55
23241;BME280;11789;53.482;9.862;2022-12-18T09:35:40;103168.87;;;1.21;51.80
23241;BME280;11789;53.482;9.862;2022-12-18T09:38:06;103178.16;;;0.75;54.08
23241;BME280;11789;53.482;9.862;2022-12-18T09:40:36;103176.00;;;0.04;56.34
23241;BME280;11789;53.482;9.862;2022-12-18T09:43:06;103191.94;;;-1.12;60.01
23241;BME280;11789;53.482;9.862;2022-12-18T09:45:44;103184.53;;;-1.89;63.85
23241;BME280;11789;53.482;9.862;2022-12-18T09:48:22;103195.06;;;-2.14;66.29
23241;BME280;11789;53.482;9.862;2022-12-18T09:50:50;103197.88;;;-2.11;65.94
23241;BME280;11789;53.482;9.862;2022-12-18T09:53:21;103197.38;;;-1.77;66.00
23241;BME280;11789;53.482;9.862;2022-12-18T09:55:48;103185.78;;;-1.55;65.64
23241;BME280;11789;53.482;9.862;2022-12-18T09:58:20;103187.00;;;-1.99;66.43
23241;BME280;11789;53.482;9.862;2022-12-18T10:00:52;103184.97;;;-2.32;67.97
23241;BME280;11789;53.482;9.862;2022-12-18T10:03:17;103195.97;;;-2.51;69.08
23241;BME280;11789;53.482;9.862;2022-12-18T10:06:01;103200.22;;;-2.60;69.94
23241;BME280;11789;53.482;9.862;2022-12-18T10:09:08;103198.06;;;-2.74;71.05
23241;BME280;11789;53.482;9.862;2022-12-18T10:14:48;103205.59;;;-2.84;72.25
23241;BME280;11789;53.482;9.862;2022-12-18T10:17:18;103203.22;;;-2.83;72.87
23241;BME280;11789;53.482;9.862;2022-12-18T10:23:03;103209.63;;;-2.87;72.98
23241;BME280;11789;53.482;9.862;2022-12-18T10:25:34;103211.53;;;-2.84;73.27
23241;BME280;11789;53.482;9.862;2022-12-18T10:28:12;103213.34;;;-2.83;72.83
23241;BME280;11789;53.482;9.862;2022-12-18T10:30:41;103200.47;;;-2.76;73.01
23241;BME280;11789;53.482;9.862;2022-12-18T10:33:21;103198.72;;;-2.77;72.88
23241;BME280;11789;53.482;9.862;2022-12-18T10:35:52;103221.34;;;-2.78;72.78
23241;BME280;11789;53.482;9.862;2022-12-18T10:41:34;103217.19;;;-2.78;72.70
23241;BME280;11789;53.482;9.862;2022-12-18T10:43:38;103211.50;;;-2.75;72.83
23241;BME280;11789;53.482;9.862;2022-12-18T10:51:05;103204.66;;;-2.76;72.87
23241;BME280;11789;53.482;9.862;2022-12-18T10:53:33;103194.81;;;-2.73;73.04
23241;BME280;11789;53.482;9.862;2022-12-18T10:55:59;103187.00;;;-2.66;74.58
23241;BME280;11789;53.482;9.862;2022-12-18T10:58:29;103187.28;;;-2.63;73.46
23241;BME280;11789;53.482;9.862;2022-12-18T11:03:38;103186.88;;;-2.68;72.75
23241;BME280;11789;53.482;9.862;2022-12-18T11:06:12;103175.09;;;-2.67;72.71
23241;BME280;11789;53.482;9.862;2022-12-18T11:08:39;103185.50;;;-2.64;73.03
23241;BME280;11789;53.482;9.862;2022-12-18T11:11:19;103183.72;;;-2.65;72.31
23241;BME280;11789;53.482;9.862;2022-12-18T11:14:06;103188.78;;;-2.65;72.41
23241;BME280;11789;53.482;9.862;2022-12-18T11:16:43;103178.66;;;-2.65;72.59
23241;BME280;11789;53.482;9.862;2022-12-18T11:19:36;103171.81;;;-2.66;72.86
23241;BME280;11789;53.482;9.862;2022-12-18T11:22:18;103181.47;;;-2.62;73.22
23241;BME280;11789;53.482;9.862;2022-12-18T11:24:58;103180.72;;;-2.61;73.40
23241;BME280;11789;53.482;9.862;2022-12-18T11:27:24;103184.53;;;-2.56;73.29
23241;BME280;11789;53.482;9.862;2022-12-18T11:29:50;103169.34;;;-2.56;73.25
23241;BME280;11789;53.482;9.862;2022-12-18T11:32:37;103162.78;;;-2.54;73.37
23241;BME280;11789;53.482;9.862;2022-12-18T11:37:54;103168.13;;;-2.51;72.86
23241;BME280;11789;53.482;9.862;2022-12-18T11:40:31;103161.28;;;-2.52;73.35
23241;BME280;11789;53.482;9.862;2022-12-18T11:43:05;103153.69;;;-2.52;72.94
23241;BME280;11789;53.482;9.862;2022-12-18T11:45:54;103155.59;;;-2.49;73.29
23241;BME280;11789;53.482;9.862;2022-12-18T11:48:32;103151.69;;;-2.46;73.25
23241;BME280;11789;53.482;9.862;2022-12-18T11:51:05;103152.56;;;-2.45;73.66
23241;BME280;11789;53.482;9.862;2022-12-18T11:53:34;103154.50;;;-2.43;73.93
23241;BME280;11789;53.482;9.862;2022-12-18T11:58:51;103140.19;;;-2.42;73.89
23241;BME280;11789;53.482;9.862;2022-12-18T12:04:10;103133.06;;;-2.46;74.02
23241;BME280;11789;53.482;9.862;2022-12-18T12:17:54;103123.34;;;-2.42;75.29
23241;BME280;11789;53.482;9.862;2022-12-18T12:20:32;103123.22;;;-2.43;74.78
23241;BME280;11789;53.482;9.862;2022-12-18T12:23:15;103121.59;;;-2.43;74.53
23241;BME280;11789;53.482;9.862;2022-12-18T12:26:12;103108.75;;;-2.44;74.73
23241;BME280;11789;53.482;9.862;2022-12-18T12:29:05;103093.56;;;-2.44;74.80
23241;BME280;11789;53.482;9.862;2022-12-18T12:32:01;103082.06;;;-2.41;74.59
23241;BME280;11789;53.482;9.862;2022-12-18T12:39:44;103064.84;;;-2.35;74.22
23241;BME280;11789;53.482;9.862;2022-12-18T12:42:19;103062.59;;;-2.31;74.44
23241;BME280;11789;53.482;9.862;2022-12-18T12:45:06;103050.19;;;-2.28;74.17
23241;BME280;11789;53.482;9.862;2022-12-18T12:47:42;103047.16;;;-2.24;73.58
23241;BME280;11789;53.482;9.862;2022-12-18T12:50:15;103044.13;;;-2.20;73.48
23241;BME280;11789;53.482;9.862;2022-12-18T12:52:55;103050.37;;;-2.17;72.95
23241;BME280;11789;53.482;9.862;2022-12-18T12:55:25;103047.94;;;-2.15;72.53
23241;BME280;11789;53.482;9.862;2022-12-18T13:00:49;103039.87;;;-2.11;72.69
23241;BME280;11789;53.482;9.862;2022-12-18T13:06:16;103048.97;;;-2.03;71.61
23241;BME280;11789;53.482;9.862;2022-12-18T13:08:59;103047.50;;;-2.01;71.09
23241;BME280;11789;53.482;9.862;2022-12-18T13:11:35;103056.09;;;-1.99;71.28
23241;BME280;11789;53.482;9.862;2022-12-18T13:14:23;103041.59;;;-2.20;74.88
23241;BME280;11789;53.482;9.862;2022-12-18T13:16:49;103051.38;;;-2.44;77.55
23241;BME280;11789;53.482;9.862;2022-12-18T13:19:23;103045.50;;;-2.63;78.77
23241;BME280;11789;53.482;9.862;2022-12-18T13:21:55;103051.00;;;-2.77;79.68
23241;BME280;11789;53.482;9.862;2022-12-18T13:24:27;103043.06;;;-2.91;80.28
23241;BME280;11789;53.482;9.862;2022-12-18T13:26:53;103041.09;;;-3.03;80.82
23241;BME280;11789;53.482;9.862;2022-12-18T13:29:41;103044.69;;;-3.10;81.41
23241;BME280;11789;53.482;9.862;2022-12-18T13:32:20;103040.88;;;-3.15;81.78
23241;BME280;11789;53.482;9.862;2022-12-18T13:34:46;103032.16;;;-3.19;82.10
23241;BME280;11789;53.482;9.862;2022-12-18T13:38:18;103028.31;;;-3.24;82.34
23241;BME280;11789;53.482;9.862;2022-12-18T13:46:20;103023.59;;;-3.29;82.95
23241;BME280;11789;53.482;9.862;2022-12-18T13:51:40;103030.81;;;-3.43;82.95
23241;BME280;11789;53.482;9.862;2022-12-18T13:54:41;103036.63;;;-3.44;83.02
23241;BME280;11789;53.482;9.862;2022-12-18T13:57:36;103032.59;;;-3.42;82.65
23241;BME280;11789;53.482;9.862;2022-12-18T14:02:48;103021.94;;;-3.48;82.40
23241;BME280;11789;53.482;9.862;2022-12-18T14:05:46;103016.87;;;-3.48;82.12
23241;BME280;11789;53.482;9.862;2022-12-18T14:08:18;103019.59;;;-3.55;82.33
23241;BME280;11789;53.482;9.862;2022-12-18T14:10:45;103022.59;;;-3.59;82.60
23241;BME280;11789;53.482;9.862;2022-12-18T14:13:24;103023.19;;;-3.61;82.73
23241;BME280;11789;53.482;9.862;2022-12-18T14:15:53;103025.59;;;-3.63;82.47
23241;BME280;11789;53.482;9.862;2022-12-18T14:21:00;103009.72;;;-3.71;82.39
23241;BME280;11789;53.482;9.862;2022-12-18T14:23:39;103017.16;;;-3.72;82.25
23241;BME280;11789;53.482;9.862;2022-12-18T14:28:48;103010.06;;;-3.76;82.12